sensor_id;sensor_type;location;lat;lon;timestamp;pressure;altitude;pressure_sealevel;temperature;humidity
70971;BME280;58632;51.718;19.446;2022-12-07T00:02:23;98939.39;;;2.26;100.00
70971;BME280;58632;51.718;19.446;2022-12-07T00:04:49;98935.28;;;2.25;100.00
70971;BME280;58632;51.718;19.446;2022-12-07T00:07:14;98936.30;;;2.27;100.00
70971;BME280;58632;51.718;19.446;2022-12-07T00:09:40;98933.59;;;2.27;100.00
70971;BME280;58632;51.718;19.446;2022-12-07T00:12:06;98934.51;;;2.28;100.00
70971;BME280;58632;51.718;19.446;2022-12-07T00:14:32;98934.96;;;2.26;100.00
70971;BME280;58632;51.718;19.446;2022-12-07T00:16:58;98935.61;;;2.24;100.00
70971;BME280;58632;51.718;19.446;2022-12-07T00:19:23;98934.77;;;2.23;100.00
70971;BME280;58632;51.718;19.446;2022-12-07T00:21:48;98934.56;;;2.19;100.00
70971;BME280;58632;51.718;19.446;2022-12-07T00:24:14;98930.37;;;2.15;100.00
70971;BME280;58632;51.718;19.446;2022-12-07T00:26:40;98933.80;;;2.13;100.00
70971;BME280;58632;51.718;19.446;2022-12-07T00:29:14;98934.20;;;2.16;100.00
70971;BME280;58632;51.718;19.446;2022-12-07T00:31:41;98933.26;;;2.19;100.00
70971;BME280;58632;51.718;19.446;2022-12-07T00:34:07;98934.60;;;2.20;100.00
70971;BME280;58632;51.718;19.446;2022-12-07T00:36:32;98935.14;;;2.19;100.00
70971;BME280;58632;51.718;19.446;2022-12-07T00:38:58;98933.52;;;2.20;100.00
70971;BME280;58632;51.718;19.446;2022-12-07T00:41:25;98932.09;;;2.17;100.00
70971;BME280;58632;51.718;19.446;2022-12-07T00:43:51;98937.86;;;2.12;100.00
70971;BME280;58632;51.718;19.446;2022-12-07T00:46:16;98938.17;;;2.13;100.00
70971;BME280;58632;51.718;19.446;2022-12-07T00:48:42;98939.63;;;2.09;100.00
70971;BME280;58632;51.718;19.446;2022-12-07T00:51:08;98937.48;;;2.07;100.00
70971;BME280;58632;51.718;19.446;2022-12-07T00:53:34;98940.18;;;2.06;100.00
70971;BME280;58632;51.718;19.446;2022-12-07T00:56:07;98935.55;;;2.05;100.00
70971;BME280;58632;51.718;19.446;2022-12-07T00:58:33;98937.80;;;2.07;100.00
70971;BME280;58632;51.718;19.446;2022-12-07T01:01:03;98935.10;;;2.07;100.00
70971;BME280;58632;51.718;19.446;2022-12-07T01:03:29;98934.72;;;2.03;100.00
70971;BME280;58632;51.718;19.446;2022-12-07T01:05:55;98935.76;;;2.01;100.00
70971;BME280;58632;51.718;19.446;2022-12-07T01:08:21;98934.44;;;1.98;100.00
70971;BME280;58632;51.718;19.446;2022-12-07T01:10:47;98929.89;;;1.99;100.00
70971;BME280;58632;51.718;19.446;2022-12-07T01:13:13;98930.45;;;1.97;100.00
70971;BME280;58632;51.718;19.446;2022-12-07T01:15:39;98931.36;;;1.98;100.00
70971;BME280;58632;51.718;19.446;2022-12-07T01:18:04;98927.16;;;1.97;100.00
70971;BME280;58632;51.718;19.446;2022-12-07T01:20:30;98929.64;;;1.98;100.00
70971;BME280;58632;51.718;19.446;2022-12-07T01:22:55;98928.71;;;1.98;100.00
70971;BME280;58632;51.718;19.446;2022-12-07T01:25:21;98926.76;;;1.95;100.00
70971;BME280;58632;51.718;19.446;2022-12-07T01:27:46;98921.63;;;1.95;100.00
70971;BME280;58632;51.718;19.446;2022-12-07T01:30:12;98918.01;;;1.95;100.00
70971;BME280;58632;51.718;19.446;2022-12-07T01:32:38;98913.81;;;1.93;100.00
70971;BME280;58632;51.718;19.446;2022-12-07T01:35:03;98910.57;;;1.93;100.00
70971;BME280;58632;51.718;19.446;2022-12-07T01:37:33;98912.14;;;1.92;100.00
70971;BME280;58632;51.718;19.446;2022-12-07T01:39:58;98910.40;;;1.88;100.00
70971;BME280;58632;51.718;19.446;2022-12-07T01:42:24;98908.39;;;1.85;100.00
70971;BME280;58632;51.718;19.446;2022-12-07T01:47:33;98904.64;;;1.84;100.00
70971;BME280;58632;51.718;19.446;2022-12-07T01:49:59;98901.49;;;1.84;100.00
70971;BME280;58632;51.718;19.446;2022-12-07T01:54:52;98898.77;;;1.85;100.00
70971;BME280;58632;51.718;19.446;2022-12-07T01:57:18;98897.20;;;1.86;100.00
70971;BME280;58632;51.718;19.446;2022-12-07T01:59:45;98896.35;;;1.90;100.00
70971;BME280;58632;51.718;19.446;2022-12-07T02:02:17;98897.36;;;1.91;100.00
70971;BME280;58632;51.718;19.446;2022-12-07T02:04:44;98895.88;;;1.87;100.00
70971;BME280;58632;51.718;19.446;2022-12-07T02:07:10;98893.64;;;1.86;100.00
70971;BME280;58632;51.718;19.446;2022-12-07T02:09:36;98887.08;;;1.84;100.00
70971;BME280;58632;51.718;19.446;2022-12-07T02:12:01;98887.75;;;1.82;100.00
70971;BME280;58632;51.718;19.446;2022-12-07T02:14:27;98885.78;;;1.84;100.00
70971;BME280;58632;51.718;19.446;2022-12-07T02:30:01;98883.86;;;1.86;100.00
70971;BME280;58632;51.718;19.446;2022-12-07T02:32:31;98876.89;;;1.92;100.00
70971;BME280;58632;51.718;19.446;2022-12-07T02:35:07;98871.67;;;1.94;100.00
70971;BME280;58632;51.718;19.446;2022-12-07T02:37:39;98868.09;;;1.92;100.00
70971;BME280;58632;51.718;19.446;2022-12-07T02:42:43;98864.16;;;1.96;100.00
70971;BME280;58632;51.718;19.446;2022-12-07T02:45:12;98868.80;;;1.97;100.00
70971;BME280;58632;51.718;19.446;2022-12-07T02:47:39;98862.89;;;1.98;100.00
70971;BME280;58632;51.718;19.446;2022-12-07T02:50:07;98861.89;;;1.96;100.00
70971;BME280;58632;51.718;19.446;2022-12-07T02:52:32;98857.39;;;1.97;100.00
70971;BME280;58632;51.718;19.446;2022-12-07T02:54:58;98859.03;;;1.96;100.00
70971;BME280;58632;51.718;19.446;2022-12-07T03:02:29;98859.70;;;1.94;100.00
70971;BME280;58632;51.718;19.446;2022-12-07T03:05:15;98860.81;;;1.95;100.00
70971;BME280;58632;51.718;19.446;2022-12-07T03:15:29;98851.91;;;1.90;100.00
70971;BME280;58632;51.718;19.446;2022-12-07T03:17:57;98849.72;;;1.88;100.00
70971;BME280;58632;51.718;19.446;2022-12-07T03:20:25;98850.67;;;1.86;100.00
70971;BME280;58632;51.718;19.446;2022-12-07T03:22:51;98849.22;;;1.84;100.00
70971;BME280;58632;51.718;19.446;2022-12-07T03:25:18;98849.82;;;1.84;100.00
70971;BME280;58632;51.718;19.446;2022-12-07T03:27:54;98848.64;;;1.83;100.00
70971;BME280;58632;51.718;19.446;2022-12-07T03:30:27;98844.58;;;1.85;100.00
70971;BME280;58632;51.718;19.446;2022-12-07T03:32:56;98839.77;;;1.84;100.00
70971;BME280;58632;51.718;19.446;2022-12-07T03:35:27;98841.86;;;1.85;100.00
70971;BME280;58632;51.718;19.446;2022-12-07T03:37:58;98838.90;;;1.85;100.00
70971;BME280;58632;51.718;19.446;2022-12-07T03:42:53;98835.06;;;1.84;100.00
70971;BME280;58632;51.718;19.446;2022-12-07T03:45:21;98837.36;;;1.83;100.00
70971;BME280;58632;51.718;19.446;2022-12-07T03:47:51;98836.90;;;1.85;100.00
70971;BME280;58632;51.718;19.446;2022-12-07T03:52:45;98825.44;;;1.91;100.00
70971;BME280;58632;51.718;19.446;2022-12-07T03:58:11;98826.65;;;1.89;100.00
70971;BME280;58632;51.718;19.446;2022-12-07T04:00:37;98826.20;;;1.87;100.00
70971;BME280;58632;51.718;19.446;2022-12-07T04:03:03;98826.60;;;1.84;100.00
70971;BME280;58632;51.718;19.446;2022-12-07T04:05:29;98827.71;;;1.85;100.00
70971;BME280;58632;51.718;19.446;2022-12-07T04:07:54;98830.41;;;1.86;100.00
70971;BME280;58632;51.718;19.446;2022-12-07T04:10:20;98830.26;;;1.85;100.00
70971;BME280;58632;51.718;19.446;2022-12-07T04:12:45;98828.02;;;1.87;100.00
70971;BME280;58632;51.718;19.446;2022-12-07T04:15:11;98829.37;;;1.87;100.00
70971;BME280;58632;51.718;19.446;2022-12-07T04:17:37;98827.14;;;1.85;100.00
70971;BME280;58632;51.718;19.446;2022-12-07T04:20:03;98825.40;;;1.85;100.00
70971;BME280;58632;51.718;19.446;2022-12-07T04:22:29;98823.20;;;1.85;100.00
70971;BME280;58632;51.718;19.446;2022-12-07T04:24:55;98825.38;;;1.82;100.00
70971;BME280;58632;51.718;19.446;2022-12-07T04:27:20;98824.30;;;1.81;100.00
70971;BME280;58632;51.718;19.446;2022-12-07T04:29:46;98821.00;;;1.78;100.00
70971;BME280;58632;51.718;19.446;2022-12-07T04:32:11;98817.77;;;1.77;100.00
70971;BME280;58632;51.718;19.446;2022-12-07T04:34:37;98818.30;;;1.74;100.00
70971;BME280;58632;51.718;19.446;2022-12-07T04:37:02;98817.52;;;1.71;100.00
70971;BME280;58632;51.718;19.446;2022-12-07T04:39:29;98815.84;;;1.66;100.00
70971;BME280;58632;51.718;19.446;2022-12-07T04:41:55;98815.50;;;1.68;100.00
70971;BME280;58632;51.718;19.446;2022-12-07T04:44:20;98815.91;;;1.70;100.00
70971;BME280;58632;51.718;19.446;2022-12-07T04:46:46;98814.98;;;1.72;100.00
70971;BME280;58632;51.718;19.446;2022-12-07T04:49:12;98814.11;;;1.73;100.00
70971;BME280;58632;51.718;19.446;2022-12-07T04:51:38;98814.11;;;1.72;100.00
70971;BME280;58632;51.718;19.446;2022-12-07T04:54:04;98812.14;;;1.68;100.00
70971;BME280;58632;51.718;19.446;2022-12-07T04:56:30;98812.98;;;1.66;100.00
70971;BME280;58632;51.718;19.446;2022-12-07T04:58:55;98809.98;;;1.69;100.00
70971;BME280;58632;51.718;19.446;2022-12-07T05:01:21;98807.77;;;1.73;100.00
70971;BME280;58632;51.718;19.446;2022-12-07T05:03:47;98808.23;;;1.75;100.00
70971;BME280;58632;51.718;19.446;2022-12-07T05:06:13;98808.33;;;1.77;100.00
70971;BME280;58632;51.718;19.446;2022-12-07T05:08:39;98807.74;;;1.76;100.00
70971;BME280;58632;51.718;19.446;2022-12-07T05:11:05;98807.15;;;1.76;100.00
70971;BME280;58632;51.718;19.446;2022-12-07T05:13:31;98803.98;;;1.75;100.00
70971;BME280;58632;51.718;19.446;2022-12-07T05:15:57;98806.84;;;1.70;100.00
70971;BME280;58632;51.718;19.446;2022-12-07T05:18:22;98808.33;;;1.71;100.00
70971;BME280;58632;51.718;19.446;2022-12-07T05:20:48;98808.75;;;1.74;100.00
70971;BME280;58632;51.718;19.446;2022-12-07T05:23:14;98807.90;;;1.76;100.00
70971;BME280;58632;51.718;19.446;2022-12-07T05:25:40;98803.55;;;1.74;100.00
70971;BME280;58632;51.718;19.446;2022-12-07T05:28:05;98806.49;;;1.72;100.00
70971;BME280;58632;51.718;19.446;2022-12-07T05:30:31;98805.98;;;1.69;100.00
70971;BME280;58632;51.718;19.446;2022-12-07T05:32:57;98813.83;;;1.67;100.00
70971;BME280;58632;51.718;19.446;2022-12-07T05:35:22;98814.61;;;1.66;100.00
70971;BME280;58632;51.718;19.446;2022-12-07T05:37:48;98820.71;;;1.69;100.00
70971;BME280;58632;51.718;19.446;2022-12-07T05:40:13;98821.48;;;1.74;100.00
70971;BME280;58632;51.718;19.446;2022-12-07T05:42:39;98821.02;;;1.76;100.00
70971;BME280;58632;51.718;19.446;2022-12-07T05:45:06;98820.66;;;1.79;100.00
70971;BME280;58632;51.718;19.446;2022-12-07T05:47:32;98822.83;;;1.79;100.00
70971;BME280;58632;51.718;19.446;2022-12-07T05:49:57;98823.48;;;1.82;100.00
70971;BME280;58632;51.718;19.446;2022-12-07T05:52:23;98822.14;;;1.82;100.00
70971;BME280;58632;51.718;19.446;2022-12-07T05:54:48;98824.52;;;1.81;100.00
70971;BME280;58632;51.718;19.446;2022-12-07T05:57:14;98821.20;;;1.85;100.00
70971;BME280;58632;51.718;19.446;2022-12-07T05:59:39;98823.12;;;1.86;100.00
70971;BME280;58632;51.718;19.446;2022-12-07T06:02:06;98819.04;;;1.85;100.00
70971;BME280;58632;51.718;19.446;2022-12-07T06:04:33;98817.70;;;1.78;100.00
70971;BME280;58632;51.718;19.446;2022-12-07T06:06:59;98819.67;;;1.76;100.00
70971;BME280;58632;51.718;19.446;2022-12-07T06:09:25;98820.92;;;1.76;100.00
70971;BME280;58632;51.718;19.446;2022-12-07T06:11:51;98819.02;;;1.75;100.00
70971;BME280;58632;51.718;19.446;2022-12-07T06:14:35;98818.60;;;1.76;100.00
70971;BME280;58632;51.718;19.446;2022-12-07T06:17:01;98820.58;;;1.77;100.00
70971;BME280;58632;51.718;19.446;2022-12-07T06:19:27;98822.34;;;1.80;100.00
70971;BME280;58632;51.718;19.446;2022-12-07T06:21:53;98822.23;;;1.80;100.00
70971;BME280;58632;51.718;19.446;2022-12-07T06:24:18;98822.51;;;1.80;100.00
70971;BME280;58632;51.718;19.446;2022-12-07T06:26:44;98818.77;;;1.79;100.00
70971;BME280;58632;51.718;19.446;2022-12-07T06:29:10;98821.59;;;1.83;100.00
70971;BME280;58632;51.718;19.446;2022-12-07T06:31:35;98813.77;;;1.87;100.00
70971;BME280;58632;51.718;19.446;2022-12-07T06:34:02;98819.70;;;1.92;100.00
70971;BME280;58632;51.718;19.446;2022-12-07T06:36:28;98820.04;;;1.96;100.00
70971;BME280;58632;51.718;19.446;2022-12-07T06:38:54;98822.36;;;1.99;100.00
70971;BME280;58632;51.718;19.446;2022-12-07T06:41:19;98819.45;;;2.00;100.00
70971;BME280;58632;51.718;19.446;2022-12-07T06:43:45;98819.50;;;2.00;100.00
70971;BME280;58632;51.718;19.446;2022-12-07T06:46:12;98825.41;;;1.98;100.00
70971;BME280;58632;51.718;19.446;2022-12-07T06:48:38;98822.90;;;1.96;100.00
70971;BME280;58632;51.718;19.446;2022-12-07T06:51:03;98824.77;;;1.97;100.00
70971;BME280;58632;51.718;19.446;2022-12-07T06:53:29;98827.71;;;2.00;100.00
70971;BME280;58632;51.718;19.446;2022-12-07T06:55:54;98826.41;;;2.00;100.00
70971;BME280;58632;51.718;19.446;2022-12-07T06:58:20;98828.54;;;1.99;100.00
70971;BME280;58632;51.718;19.446;2022-12-07T07:00:47;98829.01;;;2.00;100.00
70971;BME280;58632;51.718;19.446;2022-12-07T07:03:12;98822.62;;;2.01;100.00
70971;BME280;58632;51.718;19.446;2022-12-07T07:05:38;98822.17;;;2.02;100.00
70971;BME280;58632;51.718;19.446;2022-12-07T07:08:04;98819.03;;;2.03;100.00
70971;BME280;58632;51.718;19.446;2022-12-07T07:10:30;98822.79;;;2.05;100.00
70971;BME280;58632;51.718;19.446;2022-12-07T07:12:57;98823.88;;;2.08;100.00
70971;BME280;58632;51.718;19.446;2022-12-07T07:15:22;98821.24;;;2.12;100.00
70971;BME280;58632;51.718;19.446;2022-12-07T07:17:48;98821.55;;;2.17;100.00
70971;BME280;58632;51.718;19.446;2022-12-07T07:20:13;98826.52;;;2.21;100.00
70971;BME280;58632;51.718;19.446;2022-12-07T07:22:39;98827.73;;;2.25;100.00
70971;BME280;58632;51.718;19.446;2022-12-07T07:25:05;98827.12;;;2.25;100.00
70971;BME280;58632;51.718;19.446;2022-12-07T07:27:31;98826.71;;;2.23;100.00
70971;BME280;58632;51.718;19.446;2022-12-07T07:29:56;98827.60;;;2.26;100.00
70971;BME280;58632;51.718;19.446;2022-12-07T07:32:22;98830.70;;;2.28;100.00
70971;BME280;58632;51.718;19.446;2022-12-07T07:34:48;98831.23;;;2.29;100.00
70971;BME280;58632;51.718;19.446;2022-12-07T07:37:16;98834.36;;;2.28;100.00
70971;BME280;58632;51.718;19.446;2022-12-07T07:39:42;98836.14;;;2.28;100.00
70971;BME280;58632;51.718;19.446;2022-12-07T07:42:07;98837.39;;;2.29;100.00
70971;BME280;58632;51.718;19.446;2022-12-07T07:44:33;98844.27;;;2.32;100.00
70971;BME280;58632;51.718;19.446;2022-12-07T07:46:59;98849.44;;;2.38;100.00
70971;BME280;58632;51.718;19.446;2022-12-07T07:49:25;98848.08;;;2.38;100.00
70971;BME280;58632;51.718;19.446;2022-12-07T07:51:50;98848.40;;;2.39;100.00
70971;BME280;58632;51.718;19.446;2022-12-07T07:54:16;98853.20;;;2.38;100.00
70971;BME280;58632;51.718;19.446;2022-12-07T07:56:41;98857.48;;;2.38;100.00
70971;BME280;58632;51.718;19.446;2022-12-07T07:59:07;98862.29;;;2.43;100.00
70971;BME280;58632;51.718;19.446;2022-12-07T08:01:33;98861.36;;;2.47;100.00
70971;BME280;58632;51.718;19.446;2022-12-07T08:03:58;98866.14;;;2.50;100.00
70971;BME280;58632;51.718;19.446;2022-12-07T08:06:24;98857.88;;;2.46;100.00
70971;BME280;58632;51.718;19.446;2022-12-07T08:08:50;98862.09;;;2.45;100.00
70971;BME280;58632;51.718;19.446;2022-12-07T08:11:15;98865.98;;;2.40;100.00
70971;BME280;58632;51.718;19.446;2022-12-07T08:13:41;98868.02;;;2.42;100.00
70971;BME280;58632;51.718;19.446;2022-12-07T08:16:07;98866.09;;;2.44;100.00
70971;BME280;58632;51.718;19.446;2022-12-07T08:18:37;98867.65;;;2.46;100.00
70971;BME280;58632;51.718;19.446;2022-12-07T08:21:02;98863.66;;;2.49;100.00
70971;BME280;58632;51.718;19.446;2022-12-07T08:23:29;98865.59;;;2.46;100.00
70971;BME280;58632;51.718;19.446;2022-12-07T08:25:54;98865.82;;;2.41;100.00
70971;BME280;58632;51.718;19.446;2022-12-07T08:28:20;98864.48;;;2.40;100.00
70971;BME280;58632;51.718;19.446;2022-12-07T08:30:46;98864.87;;;2.39;100.00
70971;BME280;58632;51.718;19.446;2022-12-07T08:33:11;98860.06;;;2.39;100.00
70971;BME280;58632;51.718;19.446;2022-12-07T08:35:37;98862.41;;;2.41;100.00
70971;BME280;58632;51.718;19.446;2022-12-07T08:38:03;98860.61;;;2.43;100.00
70971;BME280;58632;51.718;19.446;2022-12-07T08:40:29;98860.94;;;2.47;100.00
70971;BME280;58632;51.718;19.446;2022-12-07T08:42:54;98856.98;;;2.52;100.00
70971;BME280;58632;51.718;19.446;2022-12-07T08:45:20;98853.83;;;2.57;100.00
70971;BME280;58632;51.718;19.446;2022-12-07T08:50:17;98852.31;;;2.64;100.00
70971;BME280;58632;51.718;19.446;2022-12-07T08:52:43;98849.25;;;2.67;100.00
70971;BME280;58632;51.718;19.446;2022-12-07T08:55:09;98849.30;;;2.73;100.00
70971;BME280;58632;51.718;19.446;2022-12-07T08:57:36;98854.84;;;2.76;100.00
70971;BME280;58632;51.718;19.446;2022-12-07T09:00:05;98854.55;;;2.77;100.00
70971;BME280;58632;51.718;19.446;2022-12-07T09:02:31;98849.65;;;2.76;100.00
70971;BME280;58632;51.718;19.446;2022-12-07T09:04:56;98848.92;;;2.74;100.00
70971;BME280;58632;51.718;19.446;2022-12-07T09:07:22;98848.25;;;2.69;100.00
70971;BME280;58632;51.718;19.446;2022-12-07T09:09:48;98842.77;;;2.67;100.00
70971;BME280;58632;51.718;19.446;2022-12-07T09:12:13;98842.67;;;2.65;100.00
70971;BME280;58632;51.718;19.446;2022-12-07T09:14:38;98840.45;;;2.63;100.00
70971;BME280;58632;51.718;19.446;2022-12-07T09:17:08;98839.72;;;2.68;100.00
70971;BME280;58632;51.718;19.446;2022-12-07T09:19:34;98839.31;;;2.72;100.00
70971;BME280;58632;51.718;19.446;2022-12-07T09:21:59;98838.88;;;2.73;100.00
70971;BME280;58632;51.718;19.446;2022-12-07T09:24:24;98837.06;;;2.72;100.00
70971;BME280;58632;51.718;19.446;2022-12-07T12:33:33;98718.59;;;2.11;100.00
70971;BME280;58632;51.718;19.446;2022-12-07T12:46:58;98693.41;;;2.56;100.00
70971;BME280;58632;51.718;19.446;2022-12-07T12:56:52;98691.03;;;2.62;100.00
70971;BME280;58632;51.718;19.446;2022-12-07T12:59:22;98690.39;;;2.52;100.00
70971;BME280;58632;51.718;19.446;2022-12-07T13:01:50;98690.19;;;2.51;100.00
70971;BME280;58632;51.718;19.446;2022-12-07T13:04:29;98683.01;;;2.54;100.00
70971;BME280;58632;51.718;19.446;2022-12-07T13:06:56;98689.45;;;2.54;100.00
70971;BME280;58632;51.718;19.446;2022-12-07T13:09:31;98684.28;;;2.46;100.00
70971;BME280;58632;51.718;19.446;2022-12-07T13:12:04;98682.74;;;2.41;100.00
70971;BME280;58632;51.718;19.446;2022-12-07T13:17:03;98681.42;;;2.31;100.00
70971;BME280;58632;51.718;19.446;2022-12-07T13:25:20;98674.83;;;2.18;100.00
70971;BME280;58632;51.718;19.446;2022-12-07T13:27:54;98676.78;;;2.11;100.00
70971;BME280;58632;51.718;19.446;2022-12-07T13:30:22;98677.23;;;2.05;100.00
70971;BME280;58632;51.718;19.446;2022-12-07T13:32:53;98675.70;;;2.03;100.00
70971;BME280;58632;51.718;19.446;2022-12-07T13:35:31;98680.34;;;2.00;100.00
70971;BME280;58632;51.718;19.446;2022-12-07T13:37:58;98677.34;;;1.94;100.00
70971;BME280;58632;51.718;19.446;2022-12-07T13:40:25;98677.77;;;1.91;100.00
70971;BME280;58632;51.718;19.446;2022-12-07T13:43:04;98677.29;;;1.86;100.00
70971;BME280;58632;51.718;19.446;2022-12-07T13:45:32;98679.23;;;1.85;100.00
70971;BME280;58632;51.718;19.446;2022-12-07T13:50:53;98682.88;;;1.83;100.00
70971;BME280;58632;51.718;19.446;2022-12-07T13:53:19;98680.91;;;1.79;100.00
70971;BME280;58632;51.718;19.446;2022-12-07T13:55:46;98679.44;;;1.74;100.00
70971;BME280;58632;51.718;19.446;2022-12-07T13:58:13;98680.83;;;1.76;100.00
70971;BME280;58632;51.718;19.446;2022-12-07T14:00:40;98677.43;;;1.80;100.00
70971;BME280;58632;51.718;19.446;2022-12-07T14:05:39;98677.04;;;1.81;100.00
70971;BME280;58632;51.718;19.446;2022-12-07T14:08:22;98683.34;;;1.78;100.00
70971;BME280;58632;51.718;19.446;2022-12-07T14:13:31;98686.43;;;1.88;100.00
70971;BME280;58632;51.718;19.446;2022-12-07T14:15:59;98685.10;;;1.92;100.00
70971;BME280;58632;51.718;19.446;2022-12-07T14:18:30;98679.21;;;1.95;100.00
70971;BME280;58632;51.718;19.446;2022-12-07T14:23:32;98683.35;;;1.92;100.00
70971;BME280;58632;51.718;19.446;2022-12-07T14:26:07;98681.80;;;1.92;100.00
70971;BME280;58632;51.718;19.446;2022-12-07T14:28:36;98679.73;;;1.92;100.00
70971;BME280;58632;51.718;19.446;2022-12-07T14:31:02;98682.70;;;1.89;100.00
70971;BME280;58632;51.718;19.446;2022-12-07T14:33:28;98684.30;;;1.86;100.00
70971;BME280;58632;51.718;19.446;2022-12-07T14:35:55;98684.77;;;1.85;100.00
70971;BME280;58632;51.718;19.446;2022-12-07T14:38:23;98681.61;;;1.85;100.00
70971;BME280;58632;51.718;19.446;2022-12-07T14:40:50;98676.33;;;1.89;100.00
70971;BME280;58632;51.718;19.446;2022-12-07T14:43:17;98681.08;;;1.90;100.00
70971;BME280;58632;51.718;19.446;2022-12-07T14:45:44;98681.42;;;1.88;100.00
70971;BME280;58632;51.718;19.446;2022-12-07T14:48:14;98681.32;;;1.84;100.00
70971;BME280;58632;51.718;19.446;2022-12-07T14:50:43;98681.44;;;1.82;100.00
70971;BME280;58632;51.718;19.446;2022-12-07T14:53:13;98685.17;;;1.89;100.00
70971;BME280;58632;51.718;19.446;2022-12-07T14:55:40;98677.42;;;1.92;100.00
70971;BME280;58632;51.718;19.446;2022-12-07T14:58:05;98679.31;;;1.92;100.00
70971;BME280;58632;51.718;19.446;2022-12-07T15:00:31;98674.73;;;1.90;100.00
70971;BME280;58632;51.718;19.446;2022-12-07T15:02:59;98678.13;;;1.87;100.00
70971;BME280;58632;51.718;19.446;2022-12-07T15:05:25;98680.16;;;1.83;100.00
70971;BME280;58632;51.718;19.446;2022-12-07T15:07:51;98683.17;;;1.85;100.00
70971;BME280;58632;51.718;19.446;2022-12-07T15:10:20;98682.58;;;1.86;100.00
70971;BME280;58632;51.718;19.446;2022-12-07T15:12:46;98680.50;;;1.83;100.00
70971;BME280;58632;51.718;19.446;2022-12-07T15:15:12;98681.35;;;1.82;100.00
70971;BME280;58632;51.718;19.446;2022-12-07T15:17:38;98681.45;;;1.78;100.00
70971;BME280;58632;51.718;19.446;2022-12-07T15:20:05;98672.42;;;1.75;100.00
70971;BME280;58632;51.718;19.446;2022-12-07T15:22:31;98670.26;;;1.76;100.00
70971;BME280;58632;51.718;19.446;2022-12-07T15:24:57;98672.11;;;1.74;100.00
70971;BME280;58632;51.718;19.446;2022-12-07T15:27:23;98671.02;;;1.71;100.00
70971;BME280;58632;51.718;19.446;2022-12-07T15:29:49;98674.11;;;1.66;100.00
70971;BME280;58632;51.718;19.446;2022-12-07T15:32:15;98670.95;;;1.63;100.00
70971;BME280;58632;51.718;19.446;2022-12-07T15:34:41;98669.08;;;1.62;100.00
70971;BME280;58632;51.718;19.446;2022-12-07T15:37:07;98673.66;;;1.62;100.00
70971;BME280;58632;51.718;19.446;2022-12-07T15:39:34;98672.48;;;1.62;100.00
70971;BME280;58632;51.718;19.446;2022-12-07T15:42:00;98672.52;;;1.63;100.00
70971;BME280;58632;51.718;19.446;2022-12-07T15:44:25;98677.66;;;1.62;100.00
70971;BME280;58632;51.718;19.446;2022-12-07T15:47:10;98677.80;;;1.59;100.00
70971;BME280;58632;51.718;19.446;2022-12-07T15:49:36;98680.73;;;1.58;100.00
70971;BME280;58632;51.718;19.446;2022-12-07T15:52:02;98681.58;;;1.64;100.00
70971;BME280;58632;51.718;19.446;2022-12-07T15:54:29;98686.90;;;1.69;100.00
70971;BME280;58632;51.718;19.446;2022-12-07T15:56:55;98686.05;;;1.69;100.00
70971;BME280;58632;51.718;19.446;2022-12-07T15:59:22;98680.35;;;1.67;100.00
70971;BME280;58632;51.718;19.446;2022-12-07T16:01:47;98676.86;;;1.63;100.00
70971;BME280;58632;51.718;19.446;2022-12-07T16:04:13;98677.07;;;1.58;100.00
70971;BME280;58632;51.718;19.446;2022-12-07T16:06:39;98676.98;;;1.60;100.00
70971;BME280;58632;51.718;19.446;2022-12-07T16:09:05;98678.77;;;1.60;100.00
70971;BME280;58632;51.718;19.446;2022-12-07T16:11:31;98679.25;;;1.56;100.00
70971;BME280;58632;51.718;19.446;2022-12-07T16:13:57;98683.16;;;1.49;100.00
70971;BME280;58632;51.718;19.446;2022-12-07T16:16:23;98681.17;;;1.45;100.00
70971;BME280;58632;51.718;19.446;2022-12-07T16:18:49;98687.50;;;1.43;100.00
70971;BME280;58632;51.718;19.446;2022-12-07T16:21:16;98687.66;;;1.43;100.00
70971;BME280;58632;51.718;19.446;2022-12-07T16:23:43;98690.96;;;1.43;100.00
70971;BME280;58632;51.718;19.446;2022-12-07T16:26:12;98694.21;;;1.42;100.00
70971;BME280;58632;51.718;19.446;2022-12-07T16:28:38;98692.73;;;1.44;100.00
70971;BME280;58632;51.718;19.446;2022-12-07T16:31:08;98691.20;;;1.46;100.00
70971;BME280;58632;51.718;19.446;2022-12-07T16:33:36;98694.27;;;1.51;100.00
70971;BME280;58632;51.718;19.446;2022-12-07T16:36:04;98690.52;;;1.53;100.00
70971;BME280;58632;51.718;19.446;2022-12-07T16:38:30;98692.66;;;1.49;100.00
70971;BME280;58632;51.718;19.446;2022-12-07T16:40:56;98690.03;;;1.48;100.00
70971;BME280;58632;51.718;19.446;2022-12-07T16:43:22;98692.50;;;1.49;100.00
70971;BME280;58632;51.718;19.446;2022-12-07T16:45:48;98700.68;;;1.51;100.00
70971;BME280;58632;51.718;19.446;2022-12-07T16:48:14;98699.98;;;1.51;100.00
70971;BME280;58632;51.718;19.446;2022-12-07T16:50:41;98706.28;;;1.53;100.00
70971;BME280;58632;51.718;19.446;2022-12-07T16:53:08;98697.14;;;1.54;100.00
70971;BME280;58632;51.718;19.446;2022-12-07T16:55:42;98707.59;;;1.52;100.00
70971;BME280;58632;51.718;19.446;2022-12-07T16:58:08;98698.30;;;1.51;100.00
70971;BME280;58632;51.718;19.446;2022-12-07T17:00:34;98704.14;;;1.52;100.00
70971;BME280;58632;51.718;19.446;2022-12-07T17:03:00;98703.20;;;1.53;100.00
70971;BME280;58632;51.718;19.446;2022-12-07T17:05:26;98701.73;;;1.57;100.00
70971;BME280;58632;51.718;19.446;2022-12-07T17:07:54;98705.55;;;1.59;100.00
70971;BME280;58632;51.718;19.446;2022-12-07T17:10:21;98702.60;;;1.58;100.00
70971;BME280;58632;51.718;19.446;2022-12-07T17:12:47;98704.46;;;1.55;100.00
70971;BME280;58632;51.718;19.446;2022-12-07T17:15:13;98710.23;;;1.52;100.00
70971;BME280;58632;51.718;19.446;2022-12-07T17:17:47;98703.65;;;1.55;100.00